createdAt,value
2019-05-20T00:01:16.449Z,94.23
2019-05-20T00:02:24.384Z,94.32
2019-05-20T00:03:16.294Z,94.84
2019-05-20T00:04:15.390Z,94.73
2019-05-20T00:05:15.294Z,94.84
2019-05-20T00:06:15.374Z,94.57
2019-05-20T00:07:15.247Z,95.08
2019-05-20T00:09:16.359Z,95.29
2019-05-20T00:10:15.313Z,95.18
2019-05-20T00:11:15.202Z,95.69
2019-05-20T00:13:16.307Z,95.08
2019-05-20T00:14:15.215Z,95.59
2019-05-20T00:15:15.206Z,95.69
2019-05-20T00:16:15.227Z,95.23
2019-05-20T00:17:15.144Z,95.84
2019-05-20T00:18:15.247Z,95.49
2019-05-20T00:19:15.115Z,95.39
2019-05-20T00:20:15.183Z,95.74
2019-05-20T00:21:15.089Z,96.04
2019-05-20T00:22:15.171Z,96.15
2019-05-20T00:23:15.107Z,95.74
2019-05-20T00:24:15.185Z,95.94
2019-05-20T00:25:15.077Z,95.43
2019-05-20T00:26:15.109Z,95.53
2019-05-20T00:27:15.042Z,95.84
2019-05-20T00:28:15.109Z,95.84
2019-05-20T00:29:15.009Z,96.04
2019-05-20T00:30:15.153Z,95.23
2019-05-20T00:31:14.982Z,96.15
2019-05-20T00:32:15.034Z,96.04
2019-05-20T00:33:14.959Z,95.98
2019-05-20T00:34:15.050Z,95.98
2019-05-20T00:35:14.944Z,96.09
2019-05-20T00:36:14.983Z,96.19
2019-05-20T00:37:14.920Z,96.50
2019-05-20T00:38:14.968Z,96.09
2019-05-20T00:39:14.897Z,95.94
2019-05-20T00:40:14.985Z,96.09
2019-05-20T00:41:14.903Z,95.98
2019-05-20T00:42:14.898Z,95.98
2019-05-20T00:43:14.852Z,96.19
2019-05-20T00:44:14.911Z,96.09
2019-05-20T00:45:14.837Z,95.98
2019-05-20T00:46:15.051Z,96.84
2019-05-20T00:47:14.810Z,97.46
2019-05-20T00:48:14.836Z,97.21
2019-05-20T00:49:14.782Z,97.36
2019-05-20T00:50:14.855Z,97.56
2019-05-20T00:51:14.804Z,97.66
2019-05-20T00:52:14.864Z,97.77
2019-05-20T00:53:14.749Z,97.66
2019-05-20T00:54:14.774Z,97.77
2019-05-20T00:55:14.723Z,97.66
2019-05-20T00:56:14.817Z,97.97
2019-05-20T00:57:14.724Z,97.46
2019-05-20T00:58:14.800Z,98.07
2019-05-20T00:59:14.684Z,97.66
2019-05-20T01:00:14.718Z,97.46
2019-05-20T01:01:14.686Z,98.02
2019-05-20T01:02:14.726Z,98.27
2019-05-20T01:03:14.639Z,98.18
2019-05-20T01:04:14.742Z,98.11
2019-05-20T01:05:14.616Z,98.07
2019-05-20T01:06:14.680Z,98.02
2019-05-20T01:07:14.589Z,98.73
2019-05-20T01:08:14.676Z,98.73
2019-05-20T01:09:14.574Z,98.63
2019-05-20T01:10:14.674Z,98.83
2019-05-20T01:11:14.579Z,98.73
2019-05-20T01:12:14.596Z,98.22
2019-05-20T01:13:14.527Z,98.52
2019-05-20T01:14:14.609Z,98.52
2019-05-20T01:15:14.505Z,98.52
2019-05-20T01:16:14.617Z,98.06
2019-05-20T01:17:14.513Z,98.27
2019-05-20T01:19:15.634Z,98.52
2019-05-20T01:20:14.545Z,98.27
2019-05-20T01:21:14.447Z,98.47
2019-05-20T01:22:14.488Z,98.06
2019-05-20T01:23:14.421Z,98.36
2019-05-20T01:24:14.471Z,98.16
2019-05-20T01:25:14.392Z,98.36
2019-05-20T01:26:14.483Z,98.27
2019-05-20T01:27:14.409Z,98.36
2019-05-20T01:29:15.491Z,98.47
2019-05-20T01:30:14.410Z,98.27
2019-05-20T01:31:14.386Z,98.47
2019-05-20T01:32:14.463Z,98.36
2019-05-20T01:33:14.592Z,98.41
2019-05-20T01:34:14.340Z,98.47
2019-05-20T01:35:14.287Z,98.61
2019-05-20T01:36:14.455Z,98.36
2019-05-20T01:37:14.305Z,98.11
2019-05-20T01:38:14.376Z,98.31
2019-05-20T01:39:14.256Z,98.52
2019-05-20T01:40:14.284Z,98.82
2019-05-20T01:41:14.224Z,98.52
2019-05-20T01:42:14.313Z,98.52
2019-05-20T01:43:14.207Z,99.23
2019-05-20T01:44:14.303Z,99.02
2019-05-20T01:45:14.182Z,99.13
2019-05-20T01:46:14.213Z,98.52
2019-05-20T01:47:14.185Z,98.82
2019-05-20T01:48:14.224Z,99.02
2019-05-20T01:49:14.140Z,99.18
2019-05-20T01:50:14.249Z,98.86
2019-05-20T01:51:14.111Z,98.86
2019-05-20T01:52:14.188Z,99.38
2019-05-20T01:53:14.102Z,98.86
2019-05-20T01:54:14.172Z,98.97
2019-05-20T01:55:14.071Z,98.77
2019-05-20T01:56:14.182Z,98.66
2019-05-20T01:57:14.086Z,98.66
2019-05-20T01:58:14.121Z,98.66
2019-05-20T01:59:14.066Z,98.46
2019-05-20T02:00:14.158Z,98.46
2019-05-20T02:01:14.007Z,98.46
2019-05-20T02:02:14.020Z,98.46
2019-05-20T02:03:28.769Z,98.91
2019-05-20T02:04:14.985Z,98.56
2019-05-20T02:05:14.040Z,98.50
2019-05-20T02:06:13.954Z,99.07
2019-05-20T02:07:14.056Z,99.52
2019-05-20T02:08:13.955Z,99.63
2019-05-20T02:09:13.973Z,99.48
2019-05-20T02:10:13.905Z,99.73
2019-05-20T02:11:13.981Z,99.73
2019-05-20T02:12:13.884Z,99.99
2019-05-20T02:13:14.023Z,99.58
2019-05-20T02:14:13.862Z,99.52
2019-05-20T02:15:13.909Z,99.84
2019-05-20T02:16:13.840Z,99.52
2019-05-20T02:17:13.927Z,99.73
2019-05-20T02:18:13.853Z,99.52
2019-05-20T02:19:13.937Z,99.48
2019-05-20T02:20:13.798Z,99.63
2019-05-20T02:21:13.951Z,99.68
2019-05-20T02:22:13.776Z,99.63
2019-05-20T02:23:13.996Z,99.63
2019-05-20T02:24:13.758Z,99.84
2019-05-20T02:25:13.773Z,99.84
2019-05-20T02:26:13.733Z,99.43
2019-05-20T02:27:13.782Z,99.73
2019-05-20T02:28:13.734Z,99.63
2019-05-20T02:29:13.831Z,99.43
2019-05-20T02:30:13.692Z,99.99
2019-05-20T02:31:13.713Z,99.88
2019-05-20T02:32:13.672Z,99.84
2019-05-20T02:33:13.737Z,99.93
2019-05-20T02:34:13.678Z,99.93
2019-05-20T02:35:13.741Z,99.73
2019-05-20T02:36:13.632Z,99.78
2019-05-20T02:37:13.649Z,99.98
2019-05-20T02:38:13.611Z,99.99
2019-05-20T02:39:13.700Z,99.68
2019-05-20T02:40:13.587Z,99.98
2019-05-20T02:41:13.673Z,99.99
2019-05-20T02:42:13.570Z,99.88
2019-05-20T02:43:13.615Z,99.99
2019-05-20T02:44:13.560Z,99.99
2019-05-20T02:45:13.598Z,99.98
2019-05-20T02:46:13.527Z,99.99
2019-05-20T02:47:13.613Z,99.68
2019-05-20T02:48:13.528Z,99.99
2019-05-20T02:49:13.560Z,99.99
2019-05-20T02:50:13.487Z,99.99
2019-05-20T02:51:13.587Z,99.99
2019-05-20T02:52:13.462Z,99.99
2019-05-20T02:53:13.564Z,99.99
2019-05-20T02:54:13.471Z,99.99
2019-05-20T02:55:13.478Z,99.99
2019-05-20T02:56:13.407Z,99.99
2019-05-20T02:57:13.485Z,99.99
2019-05-20T02:58:13.390Z,99.99
2019-05-20T02:59:13.624Z,99.99
2019-05-20T03:00:13.366Z,99.99
2019-05-20T03:01:13.710Z,99.99
2019-05-20T03:02:13.346Z,99.99
2019-05-20T03:03:13.733Z,99.99
2019-05-20T03:04:13.468Z,99.99
2019-05-20T03:06:14.441Z,99.99
2019-05-20T03:08:14.416Z,99.99
2019-05-20T03:09:14.009Z,99.99
2019-05-20T03:10:13.292Z,99.99
2019-05-20T03:12:14.356Z,99.99
2019-05-20T03:14:14.345Z,99.99
2019-05-20T03:15:14.271Z,99.99
2019-05-20T03:16:15.591Z,99.99
2019-05-20T03:18:14.311Z,99.99
2019-05-20T03:19:14.381Z,99.99
2019-05-20T03:20:13.175Z,99.99
2019-05-20T03:22:14.262Z,99.99
2019-05-20T03:24:14.272Z,99.99
2019-05-20T03:25:14.643Z,99.99
2019-05-20T03:26:13.097Z,99.99
2019-05-20T03:28:14.209Z,99.99
2019-05-20T03:30:14.240Z,99.98
2019-05-20T03:31:15.097Z,99.99
2019-05-20T03:32:13.015Z,99.99
2019-05-20T03:34:42.050Z,99.99
2019-05-20T03:35:14.092Z,99.99
2019-05-20T03:36:15.332Z,99.99
2019-05-20T03:38:14.120Z,99.99
2019-05-20T03:39:15.108Z,99.99
2019-05-20T03:40:12.969Z,99.99
2019-05-20T03:41:15.264Z,99.99
2019-05-20T03:42:12.908Z,99.99
2019-05-20T03:43:15.241Z,99.99
2019-05-20T03:44:12.900Z,99.98
2019-05-20T03:45:15.358Z,99.98
2019-05-20T03:46:12.897Z,99.99
2019-05-20T03:48:14.004Z,99.99
2019-05-20T03:50:13.969Z,99.99
2019-05-20T03:51:15.954Z,99.99
2019-05-20T03:52:12.808Z,99.99
2019-05-20T03:54:13.921Z,99.99
2019-05-20T03:56:13.949Z,99.99
2019-05-20T03:58:14.147Z,99.99
2019-05-20T04:00:13.848Z,99.99
2019-05-20T04:01:16.117Z,99.99
2019-05-20T04:02:12.698Z,99.99
2019-05-20T04:04:13.808Z,99.99
2019-05-20T04:06:13.817Z,99.99
2019-05-20T04:08:13.762Z,99.99
2019-05-20T04:10:13.753Z,99.99
2019-05-20T04:11:16.496Z,99.99
2019-05-20T04:12:12.612Z,99.99
2019-05-20T04:14:12.590Z,99.99
2019-05-20T04:16:12.537Z,99.99
2019-05-20T04:19:13.685Z,99.99
2019-05-20T04:20:14.577Z,99.99
2019-05-20T04:21:12.490Z,99.99
2019-05-20T04:22:14.634Z,99.99
2019-05-20T04:23:12.453Z,99.99
2019-05-20T04:24:15.348Z,99.99
2019-05-20T04:25:12.439Z,99.99
2019-05-20T04:26:12.474Z,99.99
2019-05-20T04:27:12.440Z,99.99
2019-05-20T04:28:12.489Z,99.99
2019-05-20T04:29:12.398Z,99.99
2019-05-20T04:30:12.507Z,99.99
2019-05-20T04:31:12.361Z,99.99
2019-05-20T04:32:12.444Z,99.99
2019-05-20T04:33:12.366Z,99.99
2019-05-20T04:34:12.425Z,99.99
2019-05-20T04:35:22.478Z,99.99
2019-05-20T04:36:13.365Z,99.99
2019-05-20T04:37:12.373Z,99.99
2019-05-20T04:38:12.333Z,99.99
2019-05-20T04:39:12.352Z,99.99
2019-05-20T04:40:12.279Z,99.99
2019-05-20T04:41:12.366Z,99.99
2019-05-20T04:42:12.277Z,99.99
2019-05-20T04:43:12.274Z,99.99
2019-05-20T04:44:12.224Z,99.99
2019-05-20T04:45:12.292Z,99.99
2019-05-20T04:46:12.203Z,99.99
2019-05-20T04:47:12.334Z,99.99
2019-05-20T04:48:13.830Z,99.99
2019-05-20T04:49:12.218Z,99.99
2019-05-20T04:50:12.159Z,99.99
2019-05-20T04:51:12.238Z,99.99
2019-05-20T04:52:12.194Z,99.99
2019-05-20T04:53:12.256Z,99.99
2019-05-20T04:54:12.118Z,99.99
2019-05-20T04:55:12.160Z,99.99
2019-05-20T04:56:12.102Z,99.99
2019-05-20T04:57:12.195Z,99.99
2019-05-20T04:58:12.089Z,99.99
2019-05-20T04:59:12.186Z,99.99
2019-05-20T05:00:12.050Z,99.99
2019-05-20T05:01:12.101Z,99.99
2019-05-20T05:02:12.084Z,99.99
2019-05-20T05:03:12.145Z,99.99
2019-05-20T05:04:12.142Z,99.99
2019-05-20T05:05:12.058Z,99.99
2019-05-20T05:06:11.987Z,99.99
2019-05-20T05:07:12.755Z,99.99
2019-05-20T05:08:12.002Z,99.99
2019-05-20T05:09:15.453Z,99.99
2019-05-20T05:10:11.943Z,99.99
2019-05-20T05:11:12.008Z,99.99
2019-05-20T05:12:11.918Z,99.99
2019-05-20T05:13:12.003Z,99.99
2019-05-20T05:14:11.896Z,99.99
2019-05-20T05:15:11.997Z,99.99
2019-05-20T05:16:11.944Z,99.99
2019-05-20T05:17:11.899Z,99.99
2019-05-20T05:18:11.897Z,99.99
2019-05-20T05:19:11.918Z,99.99
2019-05-20T05:20:18.032Z,99.99
2019-05-20T05:21:12.852Z,99.99
2019-05-20T05:22:11.813Z,99.99
2019-05-20T05:23:11.858Z,99.99
2019-05-20T05:24:11.828Z,99.99
2019-05-20T05:25:11.858Z,99.99
2019-05-20T05:26:11.774Z,99.99
2019-05-20T05:27:11.886Z,99.99
2019-05-20T05:28:11.750Z,99.99
2019-05-20T05:29:11.822Z,99.99
2019-05-20T05:30:11.733Z,99.99
2019-05-20T05:31:11.788Z,99.99
2019-05-20T05:32:11.702Z,99.99
2019-05-20T05:33:11.803Z,99.99
2019-05-20T05:34:11.703Z,99.99
2019-05-20T05:35:11.715Z,99.99
2019-05-20T05:36:11.669Z,99.99
2019-05-20T05:37:11.734Z,99.99
2019-05-20T05:38:11.686Z,99.99
2019-05-20T05:39:11.785Z,99.99
2019-05-20T05:40:11.621Z,99.99
2019-05-20T05:41:11.660Z,99.99
2019-05-20T05:42:11.593Z,99.99
2019-05-20T05:43:11.673Z,99.99
2019-05-20T05:44:11.577Z,99.99
2019-05-20T05:45:11.618Z,99.99
2019-05-20T05:46:11.562Z,99.99
2019-05-20T05:47:11.601Z,99.99
2019-05-20T05:48:11.531Z,99.99
2019-05-20T05:49:11.626Z,99.99
2019-05-20T05:50:11.784Z,99.99
2019-05-20T05:51:11.527Z,99.99
2019-05-20T05:52:11.485Z,99.99
2019-05-20T05:53:11.544Z,99.99
2019-05-20T05:54:11.506Z,99.99
2019-05-20T05:56:12.579Z,99.99
2019-05-20T05:57:11.467Z,99.99
2019-05-20T05:58:11.421Z,99.99
2019-05-20T05:59:11.607Z,99.99
2019-05-20T06:00:11.427Z,99.99
2019-05-20T06:01:11.491Z,99.99
2019-05-20T06:02:11.390Z,99.99
2019-05-20T06:03:11.438Z,99.99
2019-05-20T06:04:11.359Z,99.99
2019-05-20T06:05:11.470Z,99.99
2019-05-20T06:06:13.372Z,99.99
2019-05-20T06:07:11.430Z,99.99
2019-05-20T06:08:11.318Z,99.99
2019-05-20T06:09:11.342Z,99.99
2019-05-20T06:10:11.396Z,99.99
2019-05-20T06:11:11.358Z,99.99
2019-05-20T06:12:11.274Z,99.99
2019-05-20T06:13:11.377Z,99.99
2019-05-20T06:14:11.254Z,99.99
2019-05-20T06:15:11.321Z,99.99
2019-05-20T06:16:11.237Z,99.99
2019-05-20T06:17:11.311Z,99.99
2019-05-20T06:18:11.206Z,99.98
2019-05-20T06:19:11.312Z,99.98
2019-05-20T06:20:11.213Z,99.57
2019-05-20T06:21:11.224Z,99.57
2019-05-20T06:22:14.408Z,99.67
2019-05-20T06:23:11.259Z,99.67
2019-05-20T06:24:11.137Z,99.93
2019-05-20T06:25:11.836Z,99.42
2019-05-20T06:26:11.130Z,99.99
2019-05-20T06:27:11.166Z,99.63
2019-05-20T06:28:11.093Z,99.11
2019-05-20T06:29:11.171Z,99.22
2019-05-20T06:30:11.082Z,99.63
2019-05-20T06:31:11.135Z,99.02
2019-05-20T06:32:11.079Z,99.11
2019-05-20T06:33:11.103Z,99.11
2019-05-20T06:34:11.025Z,99.32
2019-05-20T06:35:11.117Z,99.58
2019-05-20T06:36:24.594Z,99.22
2019-05-20T06:37:12.002Z,99.22
2019-05-20T06:38:11.034Z,98.97
2019-05-20T06:39:10.976Z,99.52
2019-05-20T06:40:11.053Z,99.73
2019-05-20T06:41:10.999Z,99.02
2019-05-20T06:42:11.062Z,99.11
2019-05-20T06:43:10.947Z,99.22
2019-05-20T06:44:10.976Z,99.32
2019-05-20T06:45:10.912Z,99.38
2019-05-20T06:46:11.061Z,99.58
2019-05-20T06:47:10.893Z,99.27
2019-05-20T06:48:10.997Z,98.97
2019-05-20T06:49:10.888Z,98.86
2019-05-20T06:50:10.924Z,98.97
2019-05-20T06:51:10.882Z,98.97
2019-05-20T06:52:10.930Z,99.38
2019-05-20T06:53:10.831Z,99.38
2019-05-20T06:54:10.939Z,98.56
2019-05-20T06:55:10.810Z,98.66
2019-05-20T06:56:10.988Z,98.36
2019-05-20T06:57:11.038Z,98.56
2019-05-20T06:58:10.868Z,98.16
2019-05-20T06:59:10.766Z,99.27
2019-05-20T07:00:10.914Z,98.97
2019-05-20T07:01:10.786Z,99.38
2019-05-20T07:02:10.824Z,98.66
2019-05-20T07:03:10.724Z,98.46
2019-05-20T07:04:10.813Z,98.66
2019-05-20T07:05:10.718Z,99.07
2019-05-20T07:06:10.759Z,98.86
2019-05-20T07:07:20.400Z,99.17
2019-05-20T07:08:11.690Z,99.17
2019-05-20T07:09:10.815Z,99.38
2019-05-20T07:10:10.660Z,98.66
2019-05-20T07:11:10.756Z,98.56
2019-05-20T07:12:10.654Z,98.86
2019-05-20T07:13:10.666Z,98.16
2019-05-20T07:14:10.602Z,98.56
2019-05-20T07:15:10.682Z,98.36
2019-05-20T07:16:10.577Z,98.26
2019-05-20T07:17:10.623Z,98.66
2019-05-20T07:18:10.601Z,98.05
2019-05-20T07:19:10.614Z,98.32
2019-05-20T07:20:10.534Z,98.66
2019-05-20T07:21:10.628Z,98.36
2019-05-20T07:22:10.542Z,98.52
2019-05-20T07:23:10.529Z,98.41
2019-05-20T07:24:10.505Z,98.01
2019-05-20T07:25:10.548Z,97.55
2019-05-20T07:26:10.466Z,98.32
2019-05-20T07:27:11.028Z,98.01
2019-05-20T07:28:10.454Z,97.91
2019-05-20T07:29:10.473Z,97.60
2019-05-20T07:30:14.511Z,98.01
2019-05-20T07:31:10.485Z,98.01
2019-05-20T07:32:10.444Z,97.50
2019-05-20T07:33:10.555Z,97.09
2019-05-20T07:34:10.397Z,97.60
2019-05-20T07:35:10.410Z,97.80
2019-05-20T07:36:10.365Z,97.50
2019-05-20T07:37:10.421Z,97.60
2019-05-20T07:38:10.371Z,97.71
2019-05-20T07:39:10.433Z,97.15
2019-05-20T07:40:10.346Z,97.66
2019-05-20T07:41:10.350Z,97.56
2019-05-20T07:42:10.303Z,97.35
2019-05-20T07:43:10.394Z,97.35
2019-05-20T07:44:10.331Z,97.20
2019-05-20T07:45:10.381Z,97.60
2019-05-20T07:46:10.269Z,97.80
2019-05-20T07:47:11.166Z,97.30
2019-05-20T07:48:10.282Z,97.91
2019-05-20T07:49:10.403Z,97.60
2019-05-20T07:50:10.208Z,97.50
2019-05-20T07:51:10.314Z,97.71
2019-05-20T07:52:10.222Z,98.41
2019-05-20T07:53:10.269Z,97.91
2019-05-20T07:54:10.183Z,98.11
2019-05-20T07:55:10.240Z,97.66
2019-05-20T07:56:10.369Z,97.76
2019-05-20T07:57:10.262Z,98.16
2019-05-20T07:58:10.151Z,97.86
2019-05-20T07:59:10.169Z,97.25
2019-05-20T08:00:10.107Z,97.25
2019-05-20T08:01:10.197Z,97.15
2019-05-20T08:02:10.087Z,97.15
2019-05-20T08:03:10.122Z,97.45
2019-05-20T08:04:10.163Z,97.45
2019-05-20T08:05:10.468Z,97.11
2019-05-20T08:06:10.037Z,96.44
2019-05-20T08:07:26.615Z,95.73
2019-05-20T08:08:11.049Z,95.83
2019-05-20T08:09:10.038Z,95.99
2019-05-20T08:10:10.059Z,95.38
2019-05-20T08:11:10.046Z,95.48
2019-05-20T08:12:09.982Z,95.38
2019-05-20T08:14:11.105Z,95.28
2019-05-20T08:16:11.069Z,94.53
2019-05-20T08:17:09.984Z,94.37
2019-05-20T08:18:09.908Z,94.46
2019-05-20T08:19:10.035Z,94.02
2019-05-20T08:20:09.898Z,94.32
2019-05-20T08:21:09.910Z,94.02
2019-05-20T08:22:09.855Z,93.21
2019-05-20T08:23:09.928Z,93.71
2019-05-20T08:24:09.884Z,93.51
2019-05-20T08:25:09.939Z,93.46
2019-05-20T08:26:09.825Z,93.30
2019-05-20T08:27:09.847Z,92.65
2019-05-20T08:28:09.798Z,93.26
2019-05-20T08:29:09.896Z,93.16
2019-05-20T08:30:13.384Z,93.06
2019-05-20T08:31:09.966Z,92.86
2019-05-20T08:32:09.763Z,92.05
2019-05-20T08:33:09.794Z,92.45
2019-05-20T08:34:09.851Z,92.35
2019-05-20T08:35:09.800Z,93.32
2019-05-20T08:36:09.710Z,92.76
2019-05-20T08:37:09.899Z,92.71
2019-05-20T08:38:09.707Z,92.61
2019-05-20T08:39:09.756Z,91.90
2019-05-20T08:40:09.667Z,91.80
2019-05-20T08:41:09.743Z,91.86
2019-05-20T08:42:09.646Z,91.66
2019-05-20T08:43:09.916Z,91.19
2019-05-20T08:44:09.663Z,90.69
2019-05-20T08:45:09.670Z,91.35
2019-05-20T08:46:09.610Z,90.95
2019-05-20T08:47:09.680Z,90.54
2019-05-20T08:48:09.596Z,91.15
2019-05-20T08:49:11.194Z,90.95
2019-05-20T08:50:14.323Z,90.80
2019-05-20T08:51:10.635Z,90.95
2019-05-20T08:52:09.677Z,90.44
2019-05-20T08:53:09.621Z,90.50
2019-05-20T08:54:09.575Z,90.30
2019-05-20T08:55:09.546Z,89.79
2019-05-20T08:56:09.492Z,89.48
2019-05-20T08:57:09.562Z,90.20
2019-05-20T08:58:09.498Z,89.79
2019-05-20T08:59:09.560Z,89.99
2019-05-20T09:00:09.488Z,89.69
2019-05-20T09:01:11.308Z,89.69
2019-05-20T09:02:09.419Z,89.65
2019-05-20T09:03:09.519Z,89.65
2019-05-20T09:04:09.397Z,89.34
2019-05-20T09:05:09.537Z,88.74
2019-05-20T09:06:09.395Z,89.04
2019-05-20T09:07:09.421Z,88.94
2019-05-20T09:08:09.364Z,89.70
2019-05-20T09:09:12.191Z,89.30
2019-05-20T09:10:09.400Z,88.70
2019-05-20T09:11:09.441Z,88.90
2019-05-20T09:12:09.316Z,88.90
2019-05-20T09:13:09.408Z,88.79
2019-05-20T09:14:09.340Z,88.29
2019-05-20T09:15:09.394Z,88.65
2019-05-20T09:16:09.322Z,88.19
2019-05-20T09:17:09.278Z,87.04
2019-05-20T09:18:09.243Z,86.87
2019-05-20T09:19:09.312Z,87.18
2019-05-20T09:20:09.252Z,87.28
2019-05-20T09:21:09.464Z,88.09
2019-05-20T09:22:09.198Z,88.19
2019-05-20T09:23:09.322Z,87.38
2019-05-20T09:24:09.181Z,87.68
2019-05-20T09:25:09.751Z,87.79
2019-05-20T09:26:09.189Z,87.88
2019-05-20T09:27:09.244Z,88.19
2019-05-20T09:28:09.143Z,88.53
2019-05-20T09:29:11.396Z,88.90
2019-05-20T09:30:09.115Z,88.90
2019-05-20T09:31:09.205Z,88.13
2019-05-20T09:32:09.092Z,88.29
2019-05-20T09:33:09.183Z,88.79
2019-05-20T09:34:09.099Z,88.84
2019-05-20T09:35:09.093Z,88.43
2019-05-20T09:36:09.086Z,88.39
2019-05-20T09:37:09.106Z,88.19
2019-05-20T09:38:19.444Z,88.29
2019-05-20T09:39:10.025Z,87.88
2019-05-20T09:40:09.027Z,87.99
2019-05-20T09:41:09.021Z,88.59
2019-05-20T09:42:09.054Z,87.99
2019-05-20T09:43:08.989Z,87.38
2019-05-20T09:44:09.052Z,87.18
2019-05-20T09:45:08.953Z,87.08
2019-05-20T09:46:08.997Z,87.08
2019-05-20T09:47:08.923Z,87.18
2019-05-20T09:48:08.984Z,88.29
2019-05-20T09:49:08.930Z,87.58
2019-05-20T09:50:09.003Z,87.28
2019-05-20T09:51:08.945Z,87.08
2019-05-20T09:52:08.940Z,87.28
2019-05-20T09:53:08.870Z,87.13
2019-05-20T09:54:08.923Z,87.13
2019-05-20T09:55:08.850Z,86.53
2019-05-20T09:56:08.935Z,87.13
2019-05-20T09:57:08.871Z,85.42
2019-05-20T09:58:08.850Z,85.93
2019-05-20T09:59:08.799Z,86.37
2019-05-20T10:00:08.887Z,85.96
2019-05-20T10:01:08.778Z,86.07
2019-05-20T10:02:08.915Z,86.53
2019-05-20T10:03:08.750Z,86.53
2019-05-20T10:04:08.786Z,86.63
2019-05-20T10:05:08.728Z,87.04
2019-05-20T10:06:09.008Z,86.93
2019-05-20T10:07:08.741Z,85.88
2019-05-20T10:08:08.812Z,86.33
2019-05-20T10:09:08.771Z,85.99
2019-05-20T10:10:08.724Z,85.99
2019-05-20T10:11:08.671Z,85.78
2019-05-20T10:12:08.770Z,84.87
2019-05-20T10:13:09.184Z,85.58
2019-05-20T10:14:08.758Z,85.38
2019-05-20T10:15:08.672Z,85.38
2019-05-20T10:16:08.661Z,85.78
2019-05-20T10:17:08.594Z,86.02
2019-05-20T10:18:08.719Z,86.49
2019-05-20T10:19:08.583Z,86.08
2019-05-20T10:20:08.705Z,85.38
2019-05-20T10:21:08.590Z,85.52
2019-05-20T10:22:08.607Z,85.82
2019-05-20T10:23:08.559Z,85.68
2019-05-20T10:24:08.673Z,85.52
2019-05-20T10:25:08.510Z,85.31
2019-05-20T10:26:08.540Z,85.52
2019-05-20T10:27:08.513Z,85.31
2019-05-20T10:28:08.572Z,85.31
2019-05-20T10:29:08.465Z,85.56
2019-05-20T10:30:08.560Z,86.43
2019-05-20T10:31:08.457Z,87.13
2019-05-20T10:32:08.473Z,86.43
2019-05-20T10:33:10.743Z,85.52
2019-05-20T10:34:08.483Z,85.42
2019-05-20T10:35:08.402Z,86.08
2019-05-20T10:36:08.521Z,85.42
2019-05-20T10:37:08.390Z,85.38
2019-05-20T10:38:08.448Z,85.52
2019-05-20T10:39:08.786Z,85.22
2019-05-20T10:40:08.466Z,85.52
2019-05-20T10:41:08.336Z,84.87
2019-05-20T10:42:08.450Z,85.42
2019-05-20T10:43:08.365Z,85.48
2019-05-20T10:44:08.356Z,85.48
2019-05-20T10:45:08.304Z,85.78
2019-05-20T10:46:08.372Z,85.08
2019-05-20T10:47:08.272Z,85.38
2019-05-20T10:48:09.122Z,85.58
2019-05-20T10:49:08.267Z,84.87
2019-05-20T10:50:08.310Z,84.97
2019-05-20T10:51:10.364Z,84.87
2019-05-20T10:52:08.327Z,85.48
2019-05-20T10:53:08.207Z,85.38
2019-05-20T10:54:08.344Z,85.58
2019-05-20T10:55:08.206Z,85.28
2019-05-20T10:56:08.236Z,85.58
2019-05-20T10:57:08.158Z,85.14
2019-05-20T10:58:08.281Z,84.67
2019-05-20T10:59:11.972Z,84.83
2019-05-20T11:00:08.154Z,84.87
2019-05-20T11:01:08.131Z,83.96
2019-05-20T11:02:08.170Z,84.53
2019-05-20T11:03:08.124Z,83.62
2019-05-20T11:04:08.225Z,83.62
2019-05-20T11:05:08.177Z,83.52
2019-05-20T11:06:08.124Z,83.48
2019-05-20T11:07:08.058Z,83.82
2019-05-20T11:08:08.131Z,84.19
2019-05-20T11:09:13.940Z,83.28
2019-05-20T11:10:09.237Z,83.58
2019-05-20T11:11:08.016Z,82.67
2019-05-20T11:12:08.030Z,83.07
2019-05-20T11:13:07.988Z,82.84
2019-05-20T11:14:08.097Z,82.53
2019-05-20T11:15:07.967Z,83.44
2019-05-20T11:16:08.100Z,82.33
2019-05-20T11:17:07.950Z,81.82
2019-05-20T11:18:07.982Z,82.23
2019-05-20T11:19:07.950Z,81.73
2019-05-20T11:20:08.028Z,82.33
2019-05-20T11:21:07.929Z,81.52
2019-05-20T11:22:08.013Z,81.93
2019-05-20T11:23:07.892Z,81.52
2019-05-20T11:24:07.969Z,81.93
2019-05-20T11:25:07.851Z,82.43
2019-05-20T11:26:07.933Z,81.62
2019-05-20T11:27:07.853Z,81.82
2019-05-20T11:28:11.718Z,81.93
2019-05-20T11:29:07.836Z,81.82
2019-05-20T11:30:07.881Z,81.89
2019-05-20T11:31:07.814Z,80.78
2019-05-20T11:32:07.869Z,81.18
2019-05-20T11:33:07.772Z,81.28
2019-05-20T11:34:07.840Z,81.68
2019-05-20T11:35:07.775Z,81.89
2019-05-20T11:36:07.787Z,81.59
2019-05-20T11:37:07.731Z,81.08
2019-05-20T11:38:07.831Z,80.94
2019-05-20T11:39:07.707Z,79.33
2019-05-20T11:40:07.977Z,80.44
2019-05-20T11:41:07.695Z,80.84
2019-05-20T11:42:07.730Z,80.13
2019-05-20T11:43:07.666Z,80.44
2019-05-20T11:44:07.754Z,80.50
2019-05-20T11:45:07.678Z,80.40
2019-05-20T11:46:07.669Z,79.66
2019-05-20T11:47:07.622Z,79.05
2019-05-20T11:48:07.685Z,79.66
2019-05-20T11:49:07.613Z,79.29
2019-05-20T11:50:07.729Z,78.79
2019-05-20T11:51:07.577Z,78.49
2019-05-20T11:52:07.591Z,79.39
2019-05-20T11:53:07.551Z,79.25
2019-05-20T11:54:07.645Z,79.46
2019-05-20T11:55:07.569Z,79.16
2019-05-20T11:56:07.637Z,78.25
2019-05-20T11:57:07.517Z,79.16
2019-05-20T11:58:15.746Z,79.36
2019-05-20T11:59:08.493Z,79.46
2019-05-20T12:00:07.596Z,79.46
2019-05-20T12:01:07.475Z,79.22
2019-05-20T12:02:07.563Z,78.31
2019-05-20T12:03:07.447Z,77.77
2019-05-20T12:04:07.475Z,77.87
2019-05-20T12:05:07.461Z,76.87
2019-05-20T12:06:07.885Z,77.07
2019-05-20T12:07:08.692Z,76.83
2019-05-20T12:08:07.542Z,77.13
2019-05-20T12:09:07.373Z,77.27
2019-05-20T12:10:07.417Z,76.43
2019-05-20T12:11:07.385Z,76.23
2019-05-20T12:12:07.427Z,76.63
2019-05-20T12:13:07.334Z,75.92
2019-05-20T12:14:07.452Z,75.79
2019-05-20T12:15:08.513Z,76.05
2019-05-20T12:16:07.403Z,76.25
2019-05-20T12:17:07.295Z,76.05
2019-05-20T12:18:07.363Z,75.11
2019-05-20T12:19:07.272Z,73.41
2019-05-20T12:20:08.272Z,74.37
2019-05-20T12:21:07.324Z,73.27
2019-05-20T12:22:07.287Z,72.37
2019-05-20T12:23:07.229Z,73.57
2019-05-20T12:24:07.315Z,72.97
2019-05-20T12:25:07.246Z,73.33
2019-05-20T12:26:07.269Z,72.27
2019-05-20T12:27:07.206Z,72.37
2019-05-20T12:28:07.245Z,73.24
2019-05-20T12:29:07.163Z,73.33
2019-05-20T12:30:07.244Z,73.37
2019-05-20T12:31:07.175Z,72.37
2019-05-20T12:32:07.156Z,73.33
2019-05-20T12:33:18.644Z,72.47
2019-05-20T12:34:08.109Z,73.17
2019-05-20T12:35:07.199Z,72.20
2019-05-20T12:36:07.128Z,73.50
2019-05-20T12:37:07.231Z,74.21
2019-05-20T12:38:07.061Z,75.21
2019-05-20T12:39:07.137Z,74.95
2019-05-20T12:40:08.297Z,76.19
2019-05-20T12:41:07.154Z,75.22
2019-05-20T12:42:07.032Z,75.52
2019-05-20T12:43:07.056Z,76.97
2019-05-20T12:44:12.738Z,77.31
2019-05-20T12:45:08.116Z,77.00
2019-05-20T12:46:06.969Z,77.81
2019-05-20T12:47:07.092Z,78.41
2019-05-20T12:48:06.943Z,77.11
2019-05-20T12:49:07.196Z,78.45
2019-05-20T12:50:06.936Z,79.16
2019-05-20T12:51:07.053Z,79.16
2019-05-20T12:52:06.967Z,78.45
2019-05-20T12:53:07.043Z,79.39
2019-05-20T12:54:06.895Z,79.39
2019-05-20T12:55:09.447Z,79.39
2019-05-20T12:56:06.855Z,80.20
2019-05-20T12:57:07.023Z,80.60
2019-05-20T12:58:06.848Z,80.00
2019-05-20T12:59:06.963Z,80.20
2019-05-20T13:00:06.821Z,80.20
2019-05-20T13:01:06.855Z,80.10
2019-05-20T13:02:06.823Z,80.10
2019-05-20T13:03:06.875Z,80.33
2019-05-20T13:04:06.973Z,80.60
2019-05-20T13:05:06.901Z,80.54
2019-05-20T13:06:06.796Z,80.64
2019-05-20T13:07:06.824Z,80.00
2019-05-20T13:08:06.739Z,80.30
2019-05-20T13:09:06.820Z,80.50
2019-05-20T13:10:26.064Z,80.30
2019-05-20T13:11:07.715Z,80.40
2019-05-20T13:12:06.756Z,80.40
2019-05-20T13:13:06.685Z,79.90
2019-05-20T13:14:06.755Z,79.90
2019-05-20T13:15:06.677Z,79.60
2019-05-20T13:16:06.805Z,79.69
2019-05-20T13:17:06.702Z,79.69
2019-05-20T13:18:06.703Z,79.56
2019-05-20T13:19:06.636Z,79.46
2019-05-20T13:20:06.692Z,79.56
2019-05-20T13:21:06.591Z,78.85
2019-05-20T13:22:06.697Z,79.86
2019-05-20T13:23:09.324Z,80.26
2019-05-20T13:24:06.747Z,79.76
2019-05-20T13:25:06.576Z,79.25